sensor_id;sensor_type;location;lat;lon;timestamp;P1;durP1;ratioP1;P2;durP2;ratioP2
68319;SDS011;55168;51.120;17.024;2023-02-01T00:00:00;3.9;;;2.9;;
68319;SDS011;55168;51.120;17.024;2023-02-01T00:01:06;3.9;;;2.9;;
68319;SDS011;55168;51.120;17.024;2023-02-01T00:02:01;5.3;;;3.0;;
68319;SDS011;55168;51.120;17.024;2023-02-01T00:03:00;5.3;;;3.0;;
68319;SDS011;55168;51.120;17.024;2023-02-01T00:04:00;5.3;;;3.0;;
68319;SDS011;55168;51.120;17.024;2023-02-01T00:05:00;5.3;;;3.0;;
68319;SDS011;55168;51.120;17.024;2023-02-01T00:06:00;5.3;;;3.0;;
68319;SDS011;55168;51.120;17.024;2023-02-01T00:07:00;4.0;;;2.9;;
68319;SDS011;55168;51.120;17.024;2023-02-01T00:08:00;4.0;;;2.9;;
68319;SDS011;55168;51.120;17.024;2023-02-01T00:09:00;4.0;;;2.9;;
68319;SDS011;55168;51.120;17.024;2023-02-01T00:10:00;4.0;;;2.9;;
68319;SDS011;55168;51.120;17.024;2023-02-01T00:11:02;4.0;;;2.9;;
68319;SDS011;55168;51.120;17.024;2023-02-01T00:12:00;3.2;;;2.9;;
68319;SDS011;55168;51.120;17.024;2023-02-01T00:13:00;3.2;;;2.9;;
68319;SDS011;55168;51.120;17.024;2023-02-01T00:14:00;3.2;;;2.9;;
68319;SDS011;55168;51.120;17.024;2023-02-01T00:15:00;3.2;;;2.9;;
68319;SDS011;55168;51.120;17.024;2023-02-01T00:16:06;3.2;;;2.9;;
68319;SDS011;55168;51.120;17.024;2023-02-01T00:17:00;5.5;;;2.8;;
68319;SDS011;55168;51.120;17.024;2023-02-01T00:18:00;5.5;;;2.8;;
68319;SDS011;55168;51.120;17.024;2023-02-01T00:19:05;5.5;;;2.8;;
68319;SDS011;55168;51.120;17.024;2023-02-01T00:20:00;5.5;;;2.8;;
68319;SDS011;55168;51.120;17.024;2023-02-01T00:21:00;5.5;;;2.8;;
68319;SDS011;55168;51.120;17.024;2023-02-01T00:22:00;4.2;;;3.5;;
68319;SDS011;55168;51.120;17.024;2023-02-01T00:23:00;4.2;;;3.5;;
68319;SDS011;55168;51.120;17.024;2023-02-01T00:24:00;4.2;;;3.5;;
68319;SDS011;55168;51.120;17.024;2023-02-01T00:25:00;4.2;;;3.5;;
68319;SDS011;55168;51.120;17.024;2023-02-01T00:26:01;4.2;;;3.5;;
68319;SDS011;55168;51.120;17.024;2023-02-01T00:27:00;5.5;;;3.2;;
68319;SDS011;55168;51.120;17.024;2023-02-01T00:28:00;5.5;;;3.2;;
68319;SDS011;55168;51.120;17.024;2023-02-01T00:29:01;5.5;;;3.2;;
68319;SDS011;55168;51.120;17.024;2023-02-01T00:30:00;5.5;;;3.2;;
68319;SDS011;55168;51.120;17.024;2023-02-01T00:31:02;5.5;;;3.2;;
68319;SDS011;55168;51.120;17.024;2023-02-01T00:32:00;5.6;;;3.3;;
68319;SDS011;55168;51.120;17.024;2023-02-01T00:33:00;5.6;;;3.3;;
68319;SDS011;55168;51.120;17.024;2023-02-01T00:34:00;5.6;;;3.3;;
68319;SDS011;55168;51.120;17.024;2023-02-01T00:35:00;5.6;;;3.3;;
68319;SDS011;55168;51.120;17.024;2023-02-01T00:36:02;5.6;;;3.3;;
68319;SDS011;55168;51.120;17.024;2023-02-01T00:37:00;4.8;;;3.4;;
68319;SDS011;55168;51.120;17.024;2023-02-01T00:38:00;4.8;;;3.4;;
68319;SDS011;55168;51.120;17.024;2023-02-01T00:39:00;4.8;;;3.4;;
68319;SDS011;55168;51.120;17.024;2023-02-01T00:40:00;4.8;;;3.4;;
68319;SDS011;55168;51.120;17.024;2023-02-01T00:41:02;4.8;;;3.4;;
68319;SDS011;55168;51.120;17.024;2023-02-01T00:42:00;5.0;;;3.5;;
68319;SDS011;55168;51.120;17.024;2023-02-01T00:43:00;5.0;;;3.5;;
68319;SDS011;55168;51.120;17.024;2023-02-01T00:44:00;5.0;;;3.5;;
68319;SDS011;55168;51.120;17.024;2023-02-01T00:45:00;5.0;;;3.5;;
68319;SDS011;55168;51.120;17.024;2023-02-01T00:46:00;5.0;;;3.5;;
68319;SDS011;55168;51.120;17.024;2023-02-01T00:47:00;5.8;;;3.5;;
68319;SDS011;55168;51.120;17.024;2023-02-01T00:48:00;5.8;;;3.5;;
68319;SDS011;55168;51.120;17.024;2023-02-01T00:49:00;5.8;;;3.5;;
68319;SDS011;55168;51.120;17.024;2023-02-01T00:50:00;5.8;;;3.5;;
68319;SDS011;55168;51.120;17.024;2023-02-01T00:51:02;5.8;;;3.5;;
68319;SDS011;55168;51.120;17.024;2023-02-01T00:52:00;6.4;;;3.5;;
68319;SDS011;55168;51.120;17.024;2023-02-01T00:53:00;6.4;;;3.5;;
68319;SDS011;55168;51.120;17.024;2023-02-01T00:54:00;6.4;;;3.5;;
68319;SDS011;55168;51.120;17.024;2023-02-01T00:55:00;6.4;;;3.5;;
68319;SDS011;55168;51.120;17.024;2023-02-01T00:56:01;6.4;;;3.5;;
68319;SDS011;55168;51.120;17.024;2023-02-01T00:57:00;5.9;;;3.3;;
68319;SDS011;55168;51.120;17.024;2023-02-01T00:58:00;5.9;;;3.3;;
68319;SDS011;55168;51.120;17.024;2023-02-01T00:59:00;5.9;;;3.3;;
68319;SDS011;55168;51.120;17.024;2023-02-01T01:00:00;5.9;;;3.3;;
68319;SDS011;55168;51.120;17.024;2023-02-01T01:01:01;5.9;;;3.3;;
68319;SDS011;55168;51.120;17.024;2023-02-01T01:02:00;6.3;;;3.5;;
68319;SDS011;55168;51.120;17.024;2023-02-01T01:03:00;6.3;;;3.5;;
68319;SDS011;55168;51.120;17.024;2023-02-01T01:04:00;6.3;;;3.5;;
68319;SDS011;55168;51.120;17.024;2023-02-01T01:05:00;6.3;;;3.5;;
68319;SDS011;55168;51.120;17.024;2023-02-01T01:06:02;6.3;;;3.5;;
68319;SDS011;55168;51.120;17.024;2023-02-01T01:07:00;4.4;;;3.4;;
68319;SDS011;55168;51.120;17.024;2023-02-01T01:08:00;4.4;;;3.4;;
68319;SDS011;55168;51.120;17.024;2023-02-01T01:09:04;4.4;;;3.4;;
68319;SDS011;55168;51.120;17.024;2023-02-01T01:10:00;4.4;;;3.4;;
68319;SDS011;55168;51.120;17.024;2023-02-01T01:11:10;4.4;;;3.4;;
68319;SDS011;55168;51.120;17.024;2023-02-01T01:12:00;6.6;;;3.6;;
68319;SDS011;55168;51.120;17.024;2023-02-01T01:13:00;6.6;;;3.6;;
68319;SDS011;55168;51.120;17.024;2023-02-01T01:14:00;6.6;;;3.6;;
68319;SDS011;55168;51.120;17.024;2023-02-01T01:15:00;6.6;;;3.6;;
68319;SDS011;55168;51.120;17.024;2023-02-01T01:16:01;6.6;;;3.6;;
68319;SDS011;55168;51.120;17.024;2023-02-01T01:17:00;8.7;;;3.9;;
68319;SDS011;55168;51.120;17.024;2023-02-01T01:18:00;8.7;;;3.9;;
68319;SDS011;55168;51.120;17.024;2023-02-01T01:19:00;8.7;;;3.9;;
68319;SDS011;55168;51.120;17.024;2023-02-01T01:20:00;8.7;;;3.9;;
68319;SDS011;55168;51.120;17.024;2023-02-01T01:21:00;8.7;;;3.9;;
68319;SDS011;55168;51.120;17.024;2023-02-01T01:22:00;7.5;;;4.0;;
68319;SDS011;55168;51.120;17.024;2023-02-01T01:23:00;7.5;;;4.0;;
68319;SDS011;55168;51.120;17.024;2023-02-01T01:24:00;7.5;;;4.0;;
68319;SDS011;55168;51.120;17.024;2023-02-01T01:25:00;7.5;;;4.0;;
68319;SDS011;55168;51.120;17.024;2023-02-01T01:26:00;7.5;;;4.0;;
68319;SDS011;55168;51.120;17.024;2023-02-01T01:27:00;6.8;;;4.1;;
68319;SDS011;55168;51.120;17.024;2023-02-01T01:28:00;6.8;;;4.1;;
68319;SDS011;55168;51.120;17.024;2023-02-01T01:29:00;6.8;;;4.1;;
68319;SDS011;55168;51.120;17.024;2023-02-01T01:30:00;6.8;;;4.1;;
68319;SDS011;55168;51.120;17.024;2023-02-01T01:31:00;6.8;;;4.1;;
68319;SDS011;55168;51.120;17.024;2023-02-01T01:32:00;6.3;;;3.7;;
68319;SDS011;55168;51.120;17.024;2023-02-01T01:33:00;6.3;;;3.7;;
68319;SDS011;55168;51.120;17.024;2023-02-01T01:34:00;6.3;;;3.7;;
68319;SDS011;55168;51.120;17.024;2023-02-01T01:35:00;6.3;;;3.7;;
68319;SDS011;55168;51.120;17.024;2023-02-01T01:36:00;6.3;;;3.7;;
68319;SDS011;55168;51.120;17.024;2023-02-01T01:37:00;10.5;;;3.9;;
68319;SDS011;55168;51.120;17.024;2023-02-01T01:38:01;10.5;;;3.9;;
68319;SDS011;55168;51.120;17.024;2023-02-01T01:39:00;10.5;;;3.9;;
68319;SDS011;55168;51.120;17.024;2023-02-01T01:40:00;10.5;;;3.9;;
68319;SDS011;55168;51.120;17.024;2023-02-01T01:41:00;10.5;;;3.9;;
68319;SDS011;55168;51.120;17.024;2023-02-01T01:42:00;9.7;;;3.4;;
68319;SDS011;55168;51.120;17.024;2023-02-01T01:43:00;9.7;;;3.4;;
68319;SDS011;55168;51.120;17.024;2023-02-01T01:44:02;9.7;;;3.4;;
68319;SDS011;55168;51.120;17.024;2023-02-01T01:45:03;9.7;;;3.4;;
68319;SDS011;55168;51.120;17.024;2023-02-01T01:46:00;9.7;;;3.4;;
68319;SDS011;55168;51.120;17.024;2023-02-01T01:47:00;7.9;;;3.6;;
68319;SDS011;55168;51.120;17.024;2023-02-01T01:48:04;7.9;;;3.6;;
68319;SDS011;55168;51.120;17.024;2023-02-01T01:49:06;7.9;;;3.6;;
68319;SDS011;55168;51.120;17.024;2023-02-01T01:50:01;7.9;;;3.6;;
68319;SDS011;55168;51.120;17.024;2023-02-01T01:51:04;7.9;;;3.6;;
68319;SDS011;55168;51.120;17.024;2023-02-01T01:52:02;6.4;;;3.4;;
68319;SDS011;55168;51.120;17.024;2023-02-01T01:53:03;6.4;;;3.4;;
68319;SDS011;55168;51.120;17.024;2023-02-01T01:55:00;6.4;;;3.4;;
68319;SDS011;55168;51.120;17.024;2023-02-01T01:56:00;6.4;;;3.4;;
68319;SDS011;55168;51.120;17.024;2023-02-01T01:57:07;6.0;;;3.1;;
68319;SDS011;55168;51.120;17.024;2023-02-01T01:58:03;6.0;;;3.1;;
68319;SDS011;55168;51.120;17.024;2023-02-01T01:59:00;6.0;;;3.1;;
68319;SDS011;55168;51.120;17.024;2023-02-01T02:00:07;6.0;;;3.1;;
68319;SDS011;55168;51.120;17.024;2023-02-01T02:01:00;6.0;;;3.1;;
68319;SDS011;55168;51.120;17.024;2023-02-01T02:02:00;5.9;;;3.3;;
68319;SDS011;55168;51.120;17.024;2023-02-01T02:03:05;5.9;;;3.3;;
68319;SDS011;55168;51.120;17.024;2023-02-01T02:04:00;5.9;;;3.3;;
68319;SDS011;55168;51.120;17.024;2023-02-01T02:05:00;5.9;;;3.3;;
68319;SDS011;55168;51.120;17.024;2023-02-01T02:06:02;5.9;;;3.3;;
68319;SDS011;55168;51.120;17.024;2023-02-01T02:07:04;5.8;;;3.6;;
68319;SDS011;55168;51.120;17.024;2023-02-01T02:08:00;5.8;;;3.6;;
68319;SDS011;55168;51.120;17.024;2023-02-01T02:09:00;5.8;;;3.6;;
68319;SDS011;55168;51.120;17.024;2023-02-01T02:10:00;5.8;;;3.6;;
68319;SDS011;55168;51.120;17.024;2023-02-01T02:11:00;5.8;;;3.6;;
68319;SDS011;55168;51.120;17.024;2023-02-01T02:12:00;5.1;;;3.5;;
68319;SDS011;55168;51.120;17.024;2023-02-01T02:13:00;5.1;;;3.5;;
68319;SDS011;55168;51.120;17.024;2023-02-01T02:14:00;5.1;;;3.5;;
68319;SDS011;55168;51.120;17.024;2023-02-01T02:15:00;5.1;;;3.5;;
68319;SDS011;55168;51.120;17.024;2023-02-01T02:16:15;5.1;;;3.5;;
68319;SDS011;55168;51.120;17.024;2023-02-01T02:18:10;7.9;;;4.4;;
68319;SDS011;55168;51.120;17.024;2023-02-01T02:20:15;7.9;;;4.4;;
68319;SDS011;55168;51.120;17.024;2023-02-01T02:21:11;7.9;;;4.4;;
68319;SDS011;55168;51.120;17.024;2023-02-01T02:23:13;7.4;;;4.2;;
68319;SDS011;55168;51.120;17.024;2023-02-01T02:24:18;7.4;;;4.2;;
68319;SDS011;55168;51.120;17.024;2023-02-01T02:26:15;7.4;;;4.2;;
68319;SDS011;55168;51.120;17.024;2023-02-01T02:29:24;8.5;;;4.5;;
68319;SDS011;55168;51.120;17.024;2023-02-01T02:30:31;8.5;;;4.5;;
68319;SDS011;55168;51.120;17.024;2023-02-01T02:31:13;8.5;;;4.5;;
68319;SDS011;55168;51.120;17.024;2023-02-01T02:32:16;12.5;;;4.5;;
68319;SDS011;55168;51.120;17.024;2023-02-01T02:34:09;12.5;;;4.5;;
68319;SDS011;55168;51.120;17.024;2023-02-01T02:36:04;12.5;;;4.5;;
68319;SDS011;55168;51.120;17.024;2023-02-01T02:37:12;9.7;;;4.8;;
68319;SDS011;55168;51.120;17.024;2023-02-01T02:38:11;9.7;;;4.8;;
68319;SDS011;55168;51.120;17.024;2023-02-01T02:40:18;9.7;;;4.8;;
68319;SDS011;55168;51.120;17.024;2023-02-01T02:42:02;10.7;;;4.6;;
68319;SDS011;55168;51.120;17.024;2023-02-01T02:43:10;10.7;;;4.6;;
68319;SDS011;55168;51.120;17.024;2023-02-01T02:44:06;10.7;;;4.6;;
68319;SDS011;55168;51.120;17.024;2023-02-01T02:45:09;10.7;;;4.6;;
68319;SDS011;55168;51.120;17.024;2023-02-01T02:46:05;10.7;;;4.6;;
68319;SDS011;55168;51.120;17.024;2023-02-01T02:47:04;10.7;;;4.6;;
68319;SDS011;55168;51.120;17.024;2023-02-01T02:48:17;10.7;;;4.6;;
68319;SDS011;55168;51.120;17.024;2023-02-01T02:49:12;10.7;;;4.6;;
68319;SDS011;55168;51.120;17.024;2023-02-01T02:50:15;10.7;;;4.6;;
68319;SDS011;55168;51.120;17.024;2023-02-01T02:51:06;10.7;;;4.6;;
68319;SDS011;55168;51.120;17.024;2023-02-01T02:52:05;14.7;;;4.4;;
68319;SDS011;55168;51.120;17.024;2023-02-01T02:53:06;14.7;;;4.4;;
68319;SDS011;55168;51.120;17.024;2023-02-01T02:54:07;14.7;;;4.4;;
68319;SDS011;55168;51.120;17.024;2023-02-01T02:55:02;14.7;;;4.4;;
68319;SDS011;55168;51.120;17.024;2023-02-01T02:56:02;14.7;;;4.4;;
68319;SDS011;55168;51.120;17.024;2023-02-01T02:57:03;10.3;;;4.2;;
68319;SDS011;55168;51.120;17.024;2023-02-01T02:58:02;10.3;;;4.2;;
68319;SDS011;55168;51.120;17.024;2023-02-01T02:59:02;10.3;;;4.2;;
68319;SDS011;55168;51.120;17.024;2023-02-01T03:00:02;10.3;;;4.2;;
68319;SDS011;55168;51.120;17.024;2023-02-01T03:01:01;10.3;;;4.2;;
68319;SDS011;55168;51.120;17.024;2023-02-01T03:02:00;12.3;;;4.9;;
68319;SDS011;55168;51.120;17.024;2023-02-01T03:03:00;12.3;;;4.9;;
68319;SDS011;55168;51.120;17.024;2023-02-01T03:04:00;12.3;;;4.9;;
68319;SDS011;55168;51.120;17.024;2023-02-01T03:05:00;12.3;;;4.9;;
68319;SDS011;55168;51.120;17.024;2023-02-01T03:06:00;12.3;;;4.9;;
68319;SDS011;55168;51.120;17.024;2023-02-01T03:07:14;12.9;;;4.6;;
68319;SDS011;55168;51.120;17.024;2023-02-01T03:08:04;12.9;;;4.6;;
68319;SDS011;55168;51.120;17.024;2023-02-01T03:09:03;12.9;;;4.6;;
68319;SDS011;55168;51.120;17.024;2023-02-01T03:10:03;12.9;;;4.6;;
68319;SDS011;55168;51.120;17.024;2023-02-01T03:11:04;12.9;;;4.6;;
68319;SDS011;55168;51.120;17.024;2023-02-01T03:12:04;12.8;;;4.3;;
68319;SDS011;55168;51.120;17.024;2023-02-01T03:13:06;12.8;;;4.3;;
68319;SDS011;55168;51.120;17.024;2023-02-01T03:14:02;12.8;;;4.3;;
68319;SDS011;55168;51.120;17.024;2023-02-01T03:15:07;12.8;;;4.3;;
68319;SDS011;55168;51.120;17.024;2023-02-01T03:16:04;12.8;;;4.3;;
68319;SDS011;55168;51.120;17.024;2023-02-01T03:17:06;11.6;;;4.6;;
68319;SDS011;55168;51.120;17.024;2023-02-01T03:18:01;11.6;;;4.6;;
68319;SDS011;55168;51.120;17.024;2023-02-01T03:20:01;11.6;;;4.6;;
68319;SDS011;55168;51.120;17.024;2023-02-01T03:21:02;11.6;;;4.6;;
68319;SDS011;55168;51.120;17.024;2023-02-01T03:22:04;12.1;;;4.5;;
68319;SDS011;55168;51.120;17.024;2023-02-01T03:23:00;12.1;;;4.5;;
68319;SDS011;55168;51.120;17.024;2023-02-01T03:24:03;12.1;;;4.5;;
68319;SDS011;55168;51.120;17.024;2023-02-01T03:25:06;12.1;;;4.5;;
68319;SDS011;55168;51.120;17.024;2023-02-01T03:26:01;12.1;;;4.5;;
68319;SDS011;55168;51.120;17.024;2023-02-01T03:27:13;9.9;;;4.5;;
68319;SDS011;55168;51.120;17.024;2023-02-01T03:28:02;9.9;;;4.5;;
68319;SDS011;55168;51.120;17.024;2023-02-01T03:29:05;9.9;;;4.5;;
68319;SDS011;55168;51.120;17.024;2023-02-01T03:30:18;9.9;;;4.5;;
68319;SDS011;55168;51.120;17.024;2023-02-01T03:31:01;9.9;;;4.5;;
68319;SDS011;55168;51.120;17.024;2023-02-01T03:32:00;14.1;;;5.1;;
68319;SDS011;55168;51.120;17.024;2023-02-01T03:33:03;14.1;;;5.1;;
68319;SDS011;55168;51.120;17.024;2023-02-01T03:34:00;14.1;;;5.1;;
68319;SDS011;55168;51.120;17.024;2023-02-01T03:35:00;14.1;;;5.1;;
68319;SDS011;55168;51.120;17.024;2023-02-01T03:37:04;12.2;;;4.8;;
68319;SDS011;55168;51.120;17.024;2023-02-01T03:38:06;12.2;;;4.8;;
68319;SDS011;55168;51.120;17.024;2023-02-01T03:40:05;12.2;;;4.8;;
68319;SDS011;55168;51.120;17.024;2023-02-01T03:41:09;12.2;;;4.8;;
68319;SDS011;55168;51.120;17.024;2023-02-01T03:42:03;11.6;;;4.6;;
68319;SDS011;55168;51.120;17.024;2023-02-01T03:43:02;11.6;;;4.6;;
68319;SDS011;55168;51.120;17.024;2023-02-01T03:45:05;11.6;;;4.6;;
68319;SDS011;55168;51.120;17.024;2023-02-01T03:46:03;11.6;;;4.6;;
68319;SDS011;55168;51.120;17.024;2023-02-01T03:48:01;8.9;;;4.7;;
68319;SDS011;55168;51.120;17.024;2023-02-01T03:49:03;8.9;;;4.7;;
68319;SDS011;55168;51.120;17.024;2023-02-01T03:50:05;8.9;;;4.7;;
68319;SDS011;55168;51.120;17.024;2023-02-01T03:51:01;8.9;;;4.7;;
68319;SDS011;55168;51.120;17.024;2023-02-01T03:52:00;13.3;;;4.8;;
68319;SDS011;55168;51.120;17.024;2023-02-01T03:53:05;13.3;;;4.8;;
68319;SDS011;55168;51.120;17.024;2023-02-01T03:54:01;13.3;;;4.8;;
68319;SDS011;55168;51.120;17.024;2023-02-01T03:55:01;13.3;;;4.8;;
68319;SDS011;55168;51.120;17.024;2023-02-01T03:56:00;13.3;;;4.8;;
68319;SDS011;55168;51.120;17.024;2023-02-01T03:57:05;11.8;;;4.6;;
68319;SDS011;55168;51.120;17.024;2023-02-01T03:58:06;11.8;;;4.6;;
68319;SDS011;55168;51.120;17.024;2023-02-01T03:59:00;11.8;;;4.6;;
68319;SDS011;55168;51.120;17.024;2023-02-01T04:00:06;11.8;;;4.6;;
68319;SDS011;55168;51.120;17.024;2023-02-01T04:01:00;11.8;;;4.6;;
68319;SDS011;55168;51.120;17.024;2023-02-01T04:02:00;10.8;;;4.6;;
68319;SDS011;55168;51.120;17.024;2023-02-01T04:03:01;10.8;;;4.6;;
68319;SDS011;55168;51.120;17.024;2023-02-01T04:04:00;10.8;;;4.6;;
68319;SDS011;55168;51.120;17.024;2023-02-01T04:05:00;10.8;;;4.6;;
68319;SDS011;55168;51.120;17.024;2023-02-01T04:06:00;10.8;;;4.6;;
68319;SDS011;55168;51.120;17.024;2023-02-01T04:07:00;12.2;;;4.7;;
68319;SDS011;55168;51.120;17.024;2023-02-01T04:08:00;12.2;;;4.7;;
68319;SDS011;55168;51.120;17.024;2023-02-01T04:09:00;12.2;;;4.7;;
68319;SDS011;55168;51.120;17.024;2023-02-01T04:10:00;12.2;;;4.7;;
68319;SDS011;55168;51.120;17.024;2023-02-01T04:11:00;12.2;;;4.7;;
68319;SDS011;55168;51.120;17.024;2023-02-01T04:12:00;11.1;;;4.5;;
68319;SDS011;55168;51.120;17.024;2023-02-01T04:13:00;11.1;;;4.5;;
68319;SDS011;55168;51.120;17.024;2023-02-01T04:14:00;11.1;;;4.5;;
68319;SDS011;55168;51.120;17.024;2023-02-01T04:15:00;11.1;;;4.5;;
68319;SDS011;55168;51.120;17.024;2023-02-01T04:16:00;11.1;;;4.5;;
68319;SDS011;55168;51.120;17.024;2023-02-01T04:17:00;11.0;;;4.5;;
68319;SDS011;55168;51.120;17.024;2023-02-01T04:18:00;11.0;;;4.5;;
68319;SDS011;55168;51.120;17.024;2023-02-01T04:19:00;11.0;;;4.5;;
68319;SDS011;55168;51.120;17.024;2023-02-01T04:20:00;11.0;;;4.5;;
68319;SDS011;55168;51.120;17.024;2023-02-01T04:21:00;11.0;;;4.5;;
68319;SDS011;55168;51.120;17.024;2023-02-01T04:22:00;10.5;;;4.6;;
68319;SDS011;55168;51.120;17.024;2023-02-01T04:23:00;10.5;;;4.6;;
68319;SDS011;55168;51.120;17.024;2023-02-01T04:24:00;10.5;;;4.6;;
68319;SDS011;55168;51.120;17.024;2023-02-01T04:25:00;10.5;;;4.6;;
68319;SDS011;55168;51.120;17.024;2023-02-01T04:26:01;10.5;;;4.6;;
68319;SDS011;55168;51.120;17.024;2023-02-01T04:27:00;11.9;;;4.9;;
68319;SDS011;55168;51.120;17.024;2023-02-01T04:28:00;11.9;;;4.9;;
68319;SDS011;55168;51.120;17.024;2023-02-01T04:29:00;11.9;;;4.9;;
68319;SDS011;55168;51.120;17.024;2023-02-01T04:30:00;11.9;;;4.9;;
68319;SDS011;55168;51.120;17.024;2023-02-01T04:31:00;11.9;;;4.9;;
68319;SDS011;55168;51.120;17.024;2023-02-01T04:32:00;12.2;;;4.7;;
68319;SDS011;55168;51.120;17.024;2023-02-01T04:33:00;12.2;;;4.7;;
68319;SDS011;55168;51.120;17.024;2023-02-01T04:34:00;12.2;;;4.7;;
68319;SDS011;55168;51.120;17.024;2023-02-01T04:35:00;12.2;;;4.7;;
68319;SDS011;55168;51.120;17.024;2023-02-01T04:36:00;12.2;;;4.7;;
68319;SDS011;55168;51.120;17.024;2023-02-01T04:37:00;12.1;;;4.5;;
68319;SDS011;55168;51.120;17.024;2023-02-01T04:38:00;12.1;;;4.5;;
68319;SDS011;55168;51.120;17.024;2023-02-01T04:39:00;12.1;;;4.5;;
68319;SDS011;55168;51.120;17.024;2023-02-01T04:40:00;12.1;;;4.5;;
68319;SDS011;55168;51.120;17.024;2023-02-01T04:41:00;12.1;;;4.5;;
68319;SDS011;55168;51.120;17.024;2023-02-01T04:42:00;11.1;;;5.6;;
68319;SDS011;55168;51.120;17.024;2023-02-01T04:43:00;11.1;;;5.6;;
68319;SDS011;55168;51.120;17.024;2023-02-01T04:44:00;11.1;;;5.6;;
68319;SDS011;55168;51.120;17.024;2023-02-01T04:45:00;11.1;;;5.6;;
68319;SDS011;55168;51.120;17.024;2023-02-01T04:46:00;11.1;;;5.6;;
68319;SDS011;55168;51.120;17.024;2023-02-01T04:47:00;12.1;;;4.8;;
68319;SDS011;55168;51.120;17.024;2023-02-01T04:48:00;12.1;;;4.8;;
68319;SDS011;55168;51.120;17.024;2023-02-01T04:49:00;12.1;;;4.8;;
68319;SDS011;55168;51.120;17.024;2023-02-01T04:50:00;12.1;;;4.8;;
68319;SDS011;55168;51.120;17.024;2023-02-01T04:51:00;12.1;;;4.8;;
68319;SDS011;55168;51.120;17.024;2023-02-01T04:52:00;11.2;;;4.9;;
68319;SDS011;55168;51.120;17.024;2023-02-01T04:53:00;11.2;;;4.9;;
68319;SDS011;55168;51.120;17.024;2023-02-01T04:54:00;11.2;;;4.9;;
68319;SDS011;55168;51.120;17.024;2023-02-01T04:55:00;11.2;;;4.9;;
68319;SDS011;55168;51.120;17.024;2023-02-01T04:56:00;11.2;;;4.9;;
68319;SDS011;55168;51.120;17.024;2023-02-01T04:57:00;9.9;;;4.5;;
68319;SDS011;55168;51.120;17.024;2023-02-01T04:58:00;9.9;;;4.5;;
68319;SDS011;55168;51.120;17.024;2023-02-01T04:59:00;9.9;;;4.5;;
68319;SDS011;55168;51.120;17.024;2023-02-01T05:00:00;9.9;;;4.5;;
68319;SDS011;55168;51.120;17.024;2023-02-01T05:01:03;9.9;;;4.5;;
68319;SDS011;55168;51.120;17.024;2023-02-01T05:02:00;10.6;;;4.8;;
68319;SDS011;55168;51.120;17.024;2023-02-01T05:03:00;10.6;;;4.8;;
68319;SDS011;55168;51.120;17.024;2023-02-01T05:04:00;10.6;;;4.8;;
68319;SDS011;55168;51.120;17.024;2023-02-01T05:05:00;10.6;;;4.8;;
68319;SDS011;55168;51.120;17.024;2023-02-01T05:06:00;10.6;;;4.8;;
68319;SDS011;55168;51.120;17.024;2023-02-01T05:07:00;9.5;;;4.4;;
68319;SDS011;55168;51.120;17.024;2023-02-01T05:08:00;9.5;;;4.4;;
68319;SDS011;55168;51.120;17.024;2023-02-01T05:09:00;9.5;;;4.4;;
68319;SDS011;55168;51.120;17.024;2023-02-01T05:10:00;9.5;;;4.4;;
68319;SDS011;55168;51.120;17.024;2023-02-01T05:11:00;9.5;;;4.4;;
68319;SDS011;55168;51.120;17.024;2023-02-01T05:12:00;9.9;;;4.7;;
68319;SDS011;55168;51.120;17.024;2023-02-01T05:13:00;9.9;;;4.7;;
68319;SDS011;55168;51.120;17.024;2023-02-01T05:14:00;9.9;;;4.7;;
68319;SDS011;55168;51.120;17.024;2023-02-01T05:15:00;9.9;;;4.7;;
68319;SDS011;55168;51.120;17.024;2023-02-01T05:16:00;9.9;;;4.7;;
68319;SDS011;55168;51.120;17.024;2023-02-01T05:17:00;9.9;;;4.5;;
68319;SDS011;55168;51.120;17.024;2023-02-01T05:18:00;9.9;;;4.5;;
68319;SDS011;55168;51.120;17.024;2023-02-01T05:19:00;9.9;;;4.5;;
68319;SDS011;55168;51.120;17.024;2023-02-01T05:20:00;9.9;;;4.5;;
68319;SDS011;55168;51.120;17.024;2023-02-01T05:21:00;11.6;;;4.8;;
68319;SDS011;55168;51.120;17.024;2023-02-01T05:22:00;11.6;;;4.8;;
68319;SDS011;55168;51.120;17.024;2023-02-01T05:23:00;11.6;;;4.8;;
68319;SDS011;55168;51.120;17.024;2023-02-01T05:24:00;11.6;;;4.8;;
68319;SDS011;55168;51.120;17.024;2023-02-01T05:25:00;11.6;;;4.8;;
68319;SDS011;55168;51.120;17.024;2023-02-01T05:26:01;13.0;;;4.9;;
68319;SDS011;55168;51.120;17.024;2023-02-01T05:27:00;13.0;;;4.9;;
68319;SDS011;55168;51.120;17.024;2023-02-01T05:28:00;13.0;;;4.9;;
68319;SDS011;55168;51.120;17.024;2023-02-01T05:29:00;13.0;;;4.9;;
68319;SDS011;55168;51.120;17.024;2023-02-01T05:30:00;13.0;;;4.9;;
68319;SDS011;55168;51.120;17.024;2023-02-01T05:31:00;8.7;;;4.8;;
68319;SDS011;55168;51.120;17.024;2023-02-01T05:32:00;8.7;;;4.8;;
68319;SDS011;55168;51.120;17.024;2023-02-01T05:33:00;8.7;;;4.8;;
68319;SDS011;55168;51.120;17.024;2023-02-01T05:34:00;8.7;;;4.8;;
68319;SDS011;55168;51.120;17.024;2023-02-01T05:35:00;8.7;;;4.8;;
68319;SDS011;55168;51.120;17.024;2023-02-01T05:36:00;11.6;;;5.0;;
68319;SDS011;55168;51.120;17.024;2023-02-01T05:37:00;11.6;;;5.0;;
68319;SDS011;55168;51.120;17.024;2023-02-01T05:38:00;11.6;;;5.0;;
68319;SDS011;55168;51.120;17.024;2023-02-01T05:39:00;11.6;;;5.0;;
68319;SDS011;55168;51.120;17.024;2023-02-01T05:40:00;11.6;;;5.0;;
68319;SDS011;55168;51.120;17.024;2023-02-01T05:41:00;11.3;;;4.8;;
68319;SDS011;55168;51.120;17.024;2023-02-01T05:42:00;11.3;;;4.8;;
68319;SDS011;55168;51.120;17.024;2023-02-01T05:43:00;11.3;;;4.8;;
68319;SDS011;55168;51.120;17.024;2023-02-01T05:44:00;11.3;;;4.8;;
68319;SDS011;55168;51.120;17.024;2023-02-01T05:45:00;11.3;;;4.8;;
68319;SDS011;55168;51.120;17.024;2023-02-01T05:46:00;8.7;;;4.3;;
68319;SDS011;55168;51.120;17.024;2023-02-01T05:47:00;8.7;;;4.3;;
68319;SDS011;55168;51.120;17.024;2023-02-01T05:48:00;8.7;;;4.3;;
68319;SDS011;55168;51.120;17.024;2023-02-01T05:49:00;8.7;;;4.3;;
68319;SDS011;55168;51.120;17.024;2023-02-01T05:50:00;8.7;;;4.3;;
68319;SDS011;55168;51.120;17.024;2023-02-01T05:51:00;14.6;;;5.0;;
68319;SDS011;55168;51.120;17.024;2023-02-01T05:52:00;14.6;;;5.0;;
68319;SDS011;55168;51.120;17.024;2023-02-01T05:53:00;14.6;;;5.0;;
68319;SDS011;55168;51.120;17.024;2023-02-01T05:54:00;14.6;;;5.0;;
68319;SDS011;55168;51.120;17.024;2023-02-01T05:55:00;14.6;;;5.0;;
68319;SDS011;55168;51.120;17.024;2023-02-01T05:56:00;9.1;;;4.4;;
68319;SDS011;55168;51.120;17.024;2023-02-01T05:57:00;9.1;;;4.4;;
68319;SDS011;55168;51.120;17.024;2023-02-01T05:58:00;9.1;;;4.4;;
68319;SDS011;55168;51.120;17.024;2023-02-01T05:59:00;9.1;;;4.4;;
68319;SDS011;55168;51.120;17.024;2023-02-01T06:00:00;9.1;;;4.4;;
68319;SDS011;55168;51.120;17.024;2023-02-01T06:01:00;10.0;;;4.4;;
68319;SDS011;55168;51.120;17.024;2023-02-01T06:02:00;10.0;;;4.4;;
68319;SDS011;55168;51.120;17.024;2023-02-01T06:03:00;10.0;;;4.4;;
68319;SDS011;55168;51.120;17.024;2023-02-01T06:04:00;10.0;;;4.4;;
68319;SDS011;55168;51.120;17.024;2023-02-01T06:05:00;10.0;;;4.4;;
68319;SDS011;55168;51.120;17.024;2023-02-01T06:06:00;14.5;;;4.9;;
68319;SDS011;55168;51.120;17.024;2023-02-01T06:07:00;14.5;;;4.9;;
68319;SDS011;55168;51.120;17.024;2023-02-01T06:08:00;14.5;;;4.9;;
68319;SDS011;55168;51.120;17.024;2023-02-01T06:09:00;14.5;;;4.9;;
68319;SDS011;55168;51.120;17.024;2023-02-01T06:10:00;14.5;;;4.9;;
68319;SDS011;55168;51.120;17.024;2023-02-01T06:11:02;11.6;;;4.4;;
68319;SDS011;55168;51.120;17.024;2023-02-01T06:12:00;11.6;;;4.4;;
68319;SDS011;55168;51.120;17.024;2023-02-01T06:13:00;11.6;;;4.4;;
68319;SDS011;55168;51.120;17.024;2023-02-01T06:14:00;11.6;;;4.4;;
68319;SDS011;55168;51.120;17.024;2023-02-01T06:15:00;11.6;;;4.4;;
68319;SDS011;55168;51.120;17.024;2023-02-01T06:16:01;10.8;;;4.8;;
68319;SDS011;55168;51.120;17.024;2023-02-01T06:17:00;10.8;;;4.8;;
68319;SDS011;55168;51.120;17.024;2023-02-01T06:18:00;10.8;;;4.8;;
68319;SDS011;55168;51.120;17.024;2023-02-01T06:19:00;10.8;;;4.8;;
68319;SDS011;55168;51.120;17.024;2023-02-01T06:20:00;10.8;;;4.8;;